sim
Sign-in with your pilot id or email,
or register
Callsign
Passwort

Schedule Details

Flight Number: DLH1641
Departure: Poznan Lawica Airport (EPPO) at 05:10
Arrival: Munich Airport (EDDM) at 06:25
Route: Lufthansa Passenger Schedule. Enter filed route here before submitting Pirep.

Weather Information
Getting current METAR information for EPPO 191130Z 12004KT 050V170 CAVOK 19/03 Q1025
Getting current METAR information for EDDM 191120Z 08004KT 030V120 CAVOK 19/11 Q1019 NOSIG

Schedule Frequency

Route Map